Time;durP1;ratioP1;P1;durP2;ratioP2;P2;SDS_P1;SDS_P2;PMS_P1;PMS_P2;Temp;Humidity;BMP_temperature;BMP_pressure;BME280_temperature;BME280_humidity;BME280_pressure;Samples;Min_cycle;Max_cycle;Signal;HPM_P1;HPM_P2
2021/07/09 00:01:16;;;;;;;2.70;1.05;;;20.80;77.30;;;;;;2261286;55;21043;-73
2021/07/09 00:03:42;;;;;;;4.47;1.40;;;20.80;77.30;;;;;;2260938;56;21019;-74
2021/07/09 00:06:09;;;;;;;2.58;1.23;;;20.80;77.30;;;;;;2261621;55;21072;-74
2021/07/09 00:08:35;;;;;;;3.83;1.20;;;20.80;77.30;;;;;;2261535;56;21064;-73
2021/07/09 00:11:01;;;;;;;2.33;1.17;;;20.80;77.30;;;;;;2260354;55;20959;-73
2021/07/09 00:13:29;;;;;;;2.67;1.40;;;20.80;77.30;;;;;;2262949;56;20953;-73
2021/07/09 00:15:56;;;;;;;2.37;1.30;;;20.80;77.20;;;;;;2484959;55;20996;-70
2021/07/09 00:18:22;;;;;;;4.15;1.48;;;20.80;77.20;;;;;;2261239;55;20997;-73
2021/07/09 00:20:48;;;;;;;3.12;1.27;;;20.70;77.00;;;;;;2261404;56;21013;-73
2021/07/09 00:23:17;;;;;;;2.30;1.20;;;20.80;77.10;;;;;;2261614;56;21834;-71
2021/07/09 00:25:43;;;;;;;3.20;1.40;;;20.70;77.10;;;;;;2261455;55;21032;-73
2021/07/09 00:28:09;;;;;;;5.12;1.33;;;20.70;77.10;;;;;;2265121;56;21539;-72
2021/07/09 00:30:36;;;;;;;3.53;1.15;;;20.70;77.10;;;;;;2253951;56;20964;-72
2021/07/09 00:33:03;;;;;;;2.75;1.50;;;20.70;77.20;;;;;;2290491;55;20970;-73
2021/07/09 00:35:30;;;;;;;2.30;1.27;;;20.70;77.10;;;;;;2263982;55;21032;-72
2021/07/09 00:37:56;;;;;;;2.62;1.42;;;20.70;77.10;;;;;;2259771;56;21848;-73
2021/07/09 00:40:23;;;;;;;2.45;1.40;;;20.70;77.10;;;;;;2466466;55;21003;-73
2021/07/09 00:42:50;;;;;;;2.95;1.48;;;20.70;77.10;;;;;;2257515;56;20931;-71
2021/07/09 00:45:16;;;;;;;5.87;1.30;;;20.70;77.10;;;;;;2258524;56;21783;-72
2021/07/09 00:47:46;;;;;;;2.08;1.10;;;20.70;77.10;;;;;;2273356;55;21017;-72
2021/07/09 00:50:13;;;;;;;2.15;1.23;;;20.70;77.10;;;;;;2264451;55;21427;-72
2021/07/09 00:52:39;;;;;;;2.50;1.00;;;20.70;77.00;;;;;;2258521;55;20948;-72
2021/07/09 00:55:09;;;;;;;4.40;1.45;;;20.70;77.10;;;;;;2262300;55;21056;-72
2021/07/09 00:57:39;;;;;;;2.20;1.10;;;20.70;77.00;;;;;;2261349;55;21028;-73
2021/07/09 01:00:15;;;;;;;2.00;1.00;;;20.70;77.00;;;;;;2286406;55;20976;-72
2021/07/09 01:02:41;;;;;;;2.62;1.17;;;20.60;76.80;;;;;;2261213;55;21012;-73
2021/07/09 01:05:10;;;;;;;2.92;1.23;;;20.60;76.80;;;;;;2422696;55;20993;-72
2021/07/09 01:07:36;;;;;;;2.00;1.05;;;20.60;76.70;;;;;;2260365;56;20974;-70
2021/07/09 01:10:06;;;;;;;2.42;1.20;;;20.50;76.60;;;;;;2261767;55;20974;-72
2021/07/09 01:12:33;;;;;;;2.53;1.20;;;20.50;76.70;;;;;;2342838;55;21584;-73
2021/07/09 01:14:59;;;;;;;2.90;1.40;;;20.50;76.80;;;;;;2262140;55;21012;-73
2021/07/09 01:17:26;;;;;;;2.08;1.08;;;20.50;76.80;;;;;;2261289;56;20949;-74
2021/07/09 01:19:52;;;;;;;2.42;1.20;;;20.50;76.80;;;;;;2297990;55;20982;-72
2021/07/09 01:22:19;;;;;;;3.65;1.48;;;20.50;76.80;;;;;;2260192;56;21088;-75
2021/07/09 01:24:45;;;;;;;2.35;1.25;;;20.50;76.80;;;;;;2261485;55;21004;-69
2021/07/09 01:27:12;;;;;;;3.35;1.20;;;20.50;76.70;;;;;;2261849;56;21000;-71
2021/07/09 01:29:39;;;;;;;1.85;1.00;;;20.40;76.60;;;;;;2260983;56;21055;-73
2021/07/09 01:32:07;;;;;;;2.70;1.30;;;20.40;76.50;;;;;;2261583;56;21010;-73
2021/07/09 01:34:33;;;;;;;2.42;1.20;;;20.40;76.40;;;;;;2261630;56;20944;-75
2021/07/09 01:37:16;;;;;;;2.53;1.05;;;20.40;76.50;;;;;;2260998;55;20996;-74
2021/07/09 01:39:43;;;;;;;2.33;1.27;;;20.40;75.90;;;;;;2490205;55;20965;-72
2021/07/09 01:42:10;;;;;;;3.42;1.10;;;20.30;76.40;;;;;;2334216;55;21629;-70
2021/07/09 01:44:36;;;;;;;2.28;1.20;;;20.30;76.40;;;;;;2258402;55;21449;-72
2021/07/09 01:47:03;;;;;;;4.07;1.50;;;20.30;76.50;;;;;;2261358;55;20909;-72
2021/07/09 01:49:30;;;;;;;2.97;1.10;;;20.30;76.50;;;;;;2262323;55;20996;-72
2021/07/09 01:51:56;;;;;;;2.90;1.10;;;20.30;76.50;;;;;;2488311;55;21023;-71
2021/07/09 01:54:23;;;;;;;1.95;1.00;;;20.30;76.40;;;;;;2259228;56;20945;-71
2021/07/09 01:56:49;;;;;;;2.60;1.33;;;20.30;76.50;;;;;;2262599;55;21059;-70
2021/07/09 01:59:15;;;;;;;3.80;1.33;;;20.20;76.40;;;;;;2261075;55;20956;-73
2021/07/09 02:01:42;;;;;;;2.05;1.05;;;20.20;76.40;;;;;;2261472;56;21047;-73
2021/07/09 02:04:10;;;;;;;2.92;1.30;;;20.20;76.40;;;;;;2267131;55;21440;-73
2021/07/09 02:06:37;;;;;;;2.72;1.23;;;20.20;77.10;;;;;;2257215;56;21019;-72
2021/07/09 02:09:03;;;;;;;2.87;1.48;;;20.20;76.40;;;;;;2263393;55;20940;-72
2021/07/09 02:11:29;;;;;;;3.92;1.75;;;20.10;76.20;;;;;;2261897;55;20952;-73
2021/07/09 02:13:56;;;;;;;2.20;1.10;;;20.10;76.20;;;;;;2261832;55;21016;-73
2021/07/09 02:16:22;;;;;;;4.57;1.48;;;20.10;76.20;;;;;;2261822;55;21532;-73
2021/07/09 02:18:50;;;;;;;2.72;1.30;;;20.10;76.30;;;;;;2261558;56;21926;-71
2021/07/09 02:21:17;;;;;;;3.05;1.25;;;20.10;76.40;;;;;;2354716;55;21028;-72
2021/07/09 02:23:45;;;;;;;2.20;1.17;;;20.10;76.50;;;;;;2266214;55;20997;-72
2021/07/09 02:26:12;;;;;;;2.25;1.25;;;20.00;76.40;;;;;;2325533;55;21542;-74
2021/07/09 02:28:38;;;;;;;2.30;1.20;;;20.00;76.40;;;;;;2243978;56;21060;-73
2021/07/09 02:31:04;;;;;;;2.62;1.12;;;20.00;76.40;;;;;;2258802;55;21576;-71
2021/07/09 02:33:32;;;;;;;2.28;1.00;;;20.00;76.40;;;;;;2261018;55;20956;-73
2021/07/09 02:35:59;;;;;;;2.20;1.10;;;20.00;76.40;;;;;;2357931;55;20965;-73
2021/07/09 02:38:27;;;;;;;2.08;1.05;;;20.00;76.40;;;;;;2259292;55;21016;-74
2021/07/09 02:40:53;;;;;;;2.78;1.10;;;20.00;76.40;;;;;;2261473;56;21061;-75
2021/07/09 02:43:21;;;;;;;2.72;1.30;;;20.00;76.30;;;;;;2261575;55;20984;-74
2021/07/09 02:45:49;;;;;;;3.80;1.25;;;20.00;76.30;;;;;;2260638;55;20948;-74
2021/07/09 02:48:16;;;;;;;2.83;1.20;;;19.90;76.10;;;;;;2261373;55;20957;-74
2021/07/09 02:50:45;;;;;;;3.05;1.17;;;19.90;76.10;;;;;;2261153;56;20948;-74
2021/07/09 02:53:11;;;;;;;2.55;1.20;;;19.90;76.00;;;;;;2272859;55;20949;-74
2021/07/09 02:55:37;;;;;;;2.20;1.15;;;19.80;75.90;;;;;;2262189;55;20992;-73
2021/07/09 02:58:04;;;;;;;2.83;1.40;;;19.80;75.90;;;;;;2265862;55;21061;-71
2021/07/09 03:00:31;;;;;;;2.10;1.08;;;19.80;75.90;;;;;;2248543;56;20986;-73
2021/07/09 03:02:57;;;;;;;2.40;1.30;;;19.80;75.90;;;;;;2252738;56;21003;-73
2021/07/09 03:05:24;;;;;;;2.97;1.40;;;19.80;75.90;;;;;;2282960;55;21064;-73
2021/07/09 03:07:52;;;;;;;3.70;1.30;;;19.70;75.80;;;;;;2261542;56;20973;-73
2021/07/09 03:10:19;;;;;;;2.15;1.15;;;19.70;75.90;;;;;;2333512;55;20976;-72
2021/07/09 03:12:46;;;;;;;3.62;1.60;;;19.70;76.70;;;;;;2264739;55;21062;-73
2021/07/09 03:15:12;;;;;;;2.85;1.30;;;19.70;76.00;;;;;;2372617;55;21028;-71
2021/07/09 03:17:39;;;;;;;2.78;1.30;;;19.70;76.00;;;;;;2261614;55;20940;-73
2021/07/09 03:20:07;;;;;;;4.68;1.48;;;19.60;75.90;;;;;;2286398;55;21022;-72
2021/07/09 03:22:34;;;;;;;2.17;1.10;;;19.60;75.70;;;;;;2262250;55;20924;-74
2021/07/09 03:25:01;;;;;;;3.70;1.70;;;19.60;75.80;;;;;;2260087;55;21015;-70
2021/07/09 03:27:27;;;;;;;2.40;1.35;;;19.50;75.70;;;;;;2264799;55;21055;-72
2021/07/09 03:29:54;;;;;;;3.42;1.40;;;19.60;75.80;;;;;;2319072;55;20953;-74
2021/07/09 03:32:20;;;;;;;3.50;1.15;;;19.50;75.70;;;;;;2261371;55;20953;-73
2021/07/09 03:34:47;;;;;;;2.87;1.27;;;19.50;75.70;;;;;;2288864;55;21029;-72
2021/07/09 03:37:13;;;;;;;2.67;1.48;;;19.50;75.70;;;;;;2343359;55;21511;-72
2021/07/09 03:39:40;;;;;;;2.58;1.30;;;19.50;75.80;;;;;;2261673;55;20932;-73
2021/07/09 03:42:06;;;;;;;2.33;1.17;;;19.40;75.70;;;;;;2262781;55;20965;-72
2021/07/09 03:44:32;;;;;;;3.05;1.30;;;19.40;75.70;;;;;;2333369;55;20941;-75
2021/07/09 03:46:58;;;;;;;2.25;1.10;;;19.40;75.70;;;;;;2258694;56;20973;-72
2021/07/09 03:49:25;;;;;;;2.55;1.25;;;19.30;75.70;;;;;;2449058;55;20957;-74
2021/07/09 03:51:51;;;;;;;4.18;1.25;;;19.30;75.70;;;;;;2261631;55;20984;-71
2021/07/09 03:54:18;;;;;;;3.72;1.37;;;19.30;75.70;;;;;;2261715;55;20977;-74
2021/07/09 03:56:45;;;;;;;2.50;1.20;;;19.30;75.80;;;;;;2261439;55;20949;-73
2021/07/09 03:59:11;;;;;;;3.50;1.20;;;19.30;75.90;;;;;;2263232;55;20949;-74
2021/07/09 04:01:37;;;;;;;2.60;1.33;;;19.20;75.80;;;;;;2259173;55;21016;-73
2021/07/09 04:04:04;;;;;;;3.33;1.20;;;19.20;75.80;;;;;;2261566;55;20920;-72
2021/07/09 04:06:30;;;;;;;2.45;1.27;;;19.20;75.80;;;;;;2261530;56;20960;-74
2021/07/09 04:08:57;;;;;;;2.58;1.23;;;19.20;75.80;;;;;;2262236;55;20972;-74
2021/07/09 04:11:23;;;;;;;2.15;1.17;;;19.20;75.80;;;;;;2256190;55;21024;-73
2021/07/09 04:13:49;;;;;;;3.40;1.25;;;19.10;75.80;;;;;;2267254;55;20967;-73
2021/07/09 04:16:15;;;;;;;2.92;1.50;;;19.10;75.80;;;;;;2395986;55;21302;-72
2021/07/09 04:18:42;;;;;;;2.67;1.48;;;19.10;75.80;;;;;;2482859;55;20983;-75
2021/07/09 04:21:08;;;;;;;2.95;1.58;;;19.10;75.90;;;;;;2257656;56;21464;-70
2021/07/09 04:23:34;;;;;;;4.45;1.33;;;19.10;76.00;;;;;;2260774;55;21001;-73
2021/07/09 04:26:01;;;;;;;4.57;1.70;;;19.10;76.10;;;;;;2261398;55;20960;-73
2021/07/09 04:28:27;;;;;;;3.58;1.10;;;19.10;76.20;;;;;;2282101;55;20989;-73
2021/07/09 04:30:54;;;;;;;2.75;1.42;;;19.10;76.30;;;;;;2260873;55;21061;-71
2021/07/09 04:33:22;;;;;;;3.62;1.30;;;19.10;76.30;;;;;;2485014;55;21445;-73
2021/07/09 04:35:49;;;;;;;2.60;1.30;;;19.10;76.30;;;;;;2260960;55;21452;-73
2021/07/09 04:38:16;;;;;;;3.12;1.52;;;19.10;76.40;;;;;;2260856;55;20909;-74
2021/07/09 04:40:46;;;;;;;3.30;1.40;;;19.10;76.50;;;;;;2260957;56;20944;-72
2021/07/09 04:43:12;;;;;;;2.85;1.20;;;19.10;76.50;;;;;;2239277;56;20964;-73
2021/07/09 04:45:39;;;;;;;3.45;1.40;;;19.10;76.80;;;;;;2260936;56;21723;-73
2021/07/09 04:48:07;;;;;;;2.75;1.40;;;19.10;76.90;;;;;;2264545;55;21749;-72
2021/07/09 04:50:33;;;;;;;2.92;1.35;;;19.10;76.90;;;;;;2260575;55;21039;-73
2021/07/09 04:53:01;;;;;;;3.17;1.60;;;19.10;77.00;;;;;;2485251;55;21754;-71
2021/07/09 04:55:28;;;;;;;2.60;1.30;;;19.10;77.10;;;;;;2266941;55;21010;-72
2021/07/09 04:57:55;;;;;;;4.53;1.55;;;19.20;77.30;;;;;;2258069;56;20940;-72
2021/07/09 05:00:21;;;;;;;2.45;1.20;;;19.20;77.40;;;;;;2261215;55;21132;-73
2021/07/09 05:02:48;;;;;;;2.85;1.40;;;19.20;77.50;;;;;;2407534;55;20968;-72
2021/07/09 05:05:15;;;;;;;2.50;1.15;;;19.30;77.60;;;;;;2304978;55;20979;-71
2021/07/09 05:07:44;;;;;;;2.47;1.30;;;19.30;77.60;;;;;;2239324;56;21011;-74
2021/07/09 05:10:11;;;;;;;2.50;1.30;;;19.30;77.60;;;;;;2261412;55;20945;-73
2021/07/09 05:12:37;;;;;;;4.65;1.58;;;19.30;77.60;;;;;;2259974;56;20976;-74
2021/07/09 05:15:04;;;;;;;4.00;1.83;;;19.40;77.60;;;;;;2419424;55;21478;-72
2021/07/09 05:17:30;;;;;;;2.78;1.25;;;19.40;77.60;;;;;;2261454;55;20992;-72
2021/07/09 05:19:56;;;;;;;2.53;1.30;;;19.50;77.80;;;;;;2261803;55;20929;-76
2021/07/09 05:22:25;;;;;;;2.35;1.17;;;19.50;77.80;;;;;;2260183;56;21112;-73
2021/07/09 05:24:54;;;;;;;2.62;1.30;;;19.50;77.70;;;;;;2261060;56;21036;-74
2021/07/09 05:27:21;;;;;;;2.70;1.37;;;19.50;77.70;;;;;;2261420;56;20956;-73
2021/07/09 05:29:50;;;;;;;3.00;1.58;;;19.60;77.70;;;;;;2259951;56;21502;-73
2021/07/09 05:32:19;;;;;;;4.07;1.42;;;19.60;77.60;;;;;;2239840;56;21004;-72
2021/07/09 05:34:45;;;;;;;5.50;1.75;;;19.60;77.50;;;;;;2242743;55;21529;-74
2021/07/09 05:37:12;;;;;;;2.62;1.37;;;19.70;77.50;;;;;;2259860;56;21016;-74
2021/07/09 05:39:38;;;;;;;3.92;1.98;;;19.70;77.40;;;;;;2261087;55;21445;-73
2021/07/09 05:42:04;;;;;;;2.60;1.48;;;19.70;77.40;;;;;;2263539;55;21078;-71
2021/07/09 05:44:32;;;;;;;7.07;2.60;;;19.70;77.50;;;;;;2280438;55;20976;-73
2021/07/09 05:46:58;;;;;;;2.70;1.45;;;19.70;77.50;;;;;;2258326;55;21419;-75
2021/07/09 05:49:24;;;;;;;3.10;1.33;;;19.70;77.40;;;;;;2277034;55;21576;-72
2021/07/09 05:51:51;;;;;;;4.30;1.70;;;19.80;77.60;;;;;;2295860;56;20940;-75
2021/07/09 05:54:17;;;;;;;2.30;1.35;;;19.80;77.70;;;;;;2314421;55;21847;-74
2021/07/09 05:56:47;;;;;;;5.07;1.62;;;19.80;77.80;;;;;;2264386;55;21021;-71
2021/07/09 05:59:13;;;;;;;3.87;1.52;;;19.90;77.90;;;;;;2488094;55;20944;-73
2021/07/09 06:01:41;;;;;;;2.60;1.48;;;19.90;78.10;;;;;;2453039;55;21005;-74
2021/07/09 06:04:09;;;;;;;4.07;1.70;;;19.90;78.20;;;;;;2260705;56;21008;-74
2021/07/09 06:06:36;;;;;;;2.95;1.30;;;20.00;78.30;;;;;;2262178;56;20972;-72
2021/07/09 06:09:02;;;;;;;3.03;1.37;;;20.10;78.50;;;;;;2262033;55;20948;-74
2021/07/09 06:11:30;;;;;;;3.12;1.62;;;20.10;78.70;;;;;;2262276;56;20969;-74
2021/07/09 06:13:56;;;;;;;3.28;1.73;;;20.20;78.80;;;;;;2260880;56;21909;-72
2021/07/09 06:16:23;;;;;;;6.45;1.98;;;20.30;79.00;;;;;;2261836;56;20909;-74
2021/07/09 06:18:49;;;;;;;3.45;1.87;;;20.30;79.00;;;;;;2261362;56;21009;-72
2021/07/09 06:21:23;;;;;;;2.83;1.60;;;20.40;79.00;;;;;;2262528;55;21068;-74
2021/07/09 06:23:49;;;;;;;2.97;1.60;;;20.50;79.00;;;;;;2261580;56;21032;-75
2021/07/09 06:26:16;;;;;;;2.92;1.60;;;20.50;78.90;;;;;;2261251;55;20956;-74
2021/07/09 06:28:43;;;;;;;4.40;2.00;;;20.60;78.80;;;;;;2262716;56;21057;-72
2021/07/09 06:31:12;;;;;;;3.75;1.90;;;20.60;78.40;;;;;;2419461;55;20929;-73
2021/07/09 06:33:41;;;;;;;3.47;1.83;;;20.60;78.10;;;;;;2273898;55;21002;-75
2021/07/09 06:36:07;;;;;;;3.22;1.50;;;20.70;78.00;;;;;;2373193;55;20949;-74
2021/07/09 06:38:33;;;;;;;5.85;2.00;;;20.80;78.00;;;;;;2261196;55;21024;-74
2021/07/09 06:41:00;;;;;;;4.37;2.10;;;20.80;77.80;;;;;;2265123;55;20988;-74
2021/07/09 06:43:26;;;;;;;3.40;1.87;;;20.90;77.70;;;;;;2260355;55;21034;-74
2021/07/09 06:45:52;;;;;;;3.58;2.17;;;20.90;77.50;;;;;;2260591;56;21016;-71
2021/07/09 06:48:19;;;;;;;3.53;2.08;;;21.00;77.40;;;;;;2418047;55;21324;-71
2021/07/09 06:50:45;;;;;;;4.12;1.83;;;21.00;77.70;;;;;;2261516;55;20952;-75
2021/07/09 06:53:11;;;;;;;4.25;2.00;;;21.00;77.90;;;;;;2373158;55;20972;-73
2021/07/09 06:55:38;;;;;;;4.40;2.22;;;21.10;77.80;;;;;;2261244;55;21068;-74
2021/07/09 06:58:08;;;;;;;3.62;2.00;;;21.20;77.70;;;;;;2261087;55;20973;-73
2021/07/09 07:00:35;;;;;;;2.95;1.87;;;21.20;77.20;;;;;;2261217;56;21830;-75
2021/07/09 07:03:01;;;;;;;4.80;2.10;;;21.30;77.70;;;;;;2484095;55;21024;-72
2021/07/09 07:05:30;;;;;;;5.62;2.37;;;21.30;77.20;;;;;;2261743;55;21465;-73
2021/07/09 07:08:07;;;;;;;3.20;1.80;;;21.40;77.00;;;;;;2261591;55;21001;-73
2021/07/09 07:10:33;;;;;;;4.80;2.22;;;21.40;76.70;;;;;;2261541;56;20932;-74
2021/07/09 07:13:01;;;;;;;4.78;1.98;;;21.40;76.20;;;;;;2261494;56;20953;-71
2021/07/09 07:15:28;;;;;;;5.12;1.83;;;21.50;76.30;;;;;;2261485;56;20945;-74
2021/07/09 07:17:55;;;;;;;3.62;2.22;;;21.50;76.40;;;;;;2365576;55;21833;-75
2021/07/09 07:20:21;;;;;;;4.15;1.85;;;21.50;76.40;;;;;;2265339;56;20999;-73
2021/07/09 07:22:47;;;;;;;2.55;1.58;;;21.60;76.80;;;;;;2257913;56;20976;-76
2021/07/09 07:25:14;;;;;;;4.37;2.03;;;21.60;76.60;;;;;;2265022;55;20960;-73
2021/07/09 07:27:40;;;;;;;3.50;2.20;;;21.60;76.30;;;;;;2259579;56;21014;-73
2021/07/09 07:30:07;;;;;;;4.07;2.33;;;21.70;76.30;;;;;;2261465;55;20976;-72
2021/07/09 07:32:35;;;;;;;4.60;2.03;;;21.70;76.00;;;;;;2265296;55;20973;-73
2021/07/09 07:35:02;;;;;;;3.35;1.87;;;21.80;76.30;;;;;;2257496;56;20957;-73
2021/07/09 07:37:28;;;;;;;3.47;2.00;;;21.80;76.30;;;;;;2261423;55;20964;-72
2021/07/09 07:39:55;;;;;;;2.97;1.83;;;21.80;76.10;;;;;;2262706;55;20945;-72
2021/07/09 07:42:26;;;;;;;5.32;1.90;;;21.90;76.20;;;;;;2260273;56;21040;-74
2021/07/09 07:44:52;;;;;;;4.03;1.95;;;21.90;76.00;;;;;;2261070;55;21453;-72
2021/07/09 07:47:21;;;;;;;4.05;1.80;;;22.00;76.00;;;;;;2261434;56;20957;-73
2021/07/09 07:49:48;;;;;;;4.15;2.10;;;22.00;76.00;;;;;;2261486;55;21056;-73
2021/07/09 07:52:14;;;;;;;4.03;2.08;;;22.00;75.80;;;;;;2261598;55;21012;-73
2021/07/09 07:54:40;;;;;;;3.80;1.75;;;22.00;75.80;;;;;;2284881;55;21079;-76
2021/07/09 07:57:08;;;;;;;4.82;2.15;;;22.10;76.00;;;;;;2261398;56;21515;-73
2021/07/09 07:59:34;;;;;;;3.17;2.10;;;22.10;75.90;;;;;;2262275;55;21084;-75
2021/07/09 08:02:01;;;;;;;3.40;1.70;;;22.10;75.90;;;;;;2261578;56;21044;-73
2021/07/09 08:04:27;;;;;;;3.65;2.10;;;22.20;76.10;;;;;;2261270;55;20933;-74
2021/07/09 08:06:53;;;;;;;6.60;2.03;;;22.30;76.30;;;;;;2328403;55;20952;-74
2021/07/09 08:09:20;;;;;;;3.65;2.45;;;22.30;76.20;;;;;;2261417;55;21009;-75
2021/07/09 08:11:49;;;;;;;4.65;2.10;;;22.40;76.10;;;;;;2267363;55;20968;-73
2021/07/09 08:14:15;;;;;;;3.30;1.87;;;22.40;76.10;;;;;;2262847;56;20993;-74
2021/07/09 08:16:41;;;;;;;3.30;1.85;;;22.50;76.30;;;;;;2258683;56;20977;-73
2021/07/09 08:19:09;;;;;;;3.28;1.95;;;22.50;76.40;;;;;;2261705;55;20965;-74
2021/07/09 08:21:36;;;;;;;4.45;2.17;;;22.60;76.60;;;;;;2261686;55;20977;-74
2021/07/09 08:24:02;;;;;;;4.68;2.60;;;22.70;76.70;;;;;;2261007;55;21020;-74
2021/07/09 08:26:29;;;;;;;4.62;2.22;;;22.80;76.70;;;;;;2261706;56;20940;-72
2021/07/09 08:28:56;;;;;;;6.50;2.37;;;22.80;76.60;;;;;;2261577;56;20940;-72
2021/07/09 08:31:24;;;;;;;3.60;2.50;;;22.90;75.90;;;;;;2278114;55;21091;-74
2021/07/09 08:33:51;;;;;;;3.90;2.20;;;23.00;75.40;;;;;;2246480;56;20978;-74
2021/07/09 08:36:20;;;;;;;3.90;2.20;;;23.00;75.30;;;;;;2253162;56;21014;-73
2021/07/09 08:38:47;;;;;;;4.95;2.20;;;23.10;75.30;;;;;;2260752;56;20976;-73
2021/07/09 08:41:14;;;;;;;2.83;1.67;;;23.10;75.00;;;;;;2261689;56;21699;-74
2021/07/09 08:43:40;;;;;;;3.80;2.50;;;23.20;75.20;;;;;;2261484;56;20960;-73
2021/07/09 08:46:09;;;;;;;3.20;2.08;;;23.20;74.70;;;;;;2490417;55;20932;-71
2021/07/09 08:48:36;;;;;;;2.97;1.95;;;23.20;74.20;;;;;;2267015;55;21770;-73
2021/07/09 08:51:06;;;;;;;4.07;1.87;;;23.20;74.50;;;;;;2292748;55;20954;-73
2021/07/09 08:53:34;;;;;;;3.10;1.80;;;23.30;75.00;;;;;;2257506;55;21039;-74
2021/07/09 08:56:01;;;;;;;3.62;2.35;;;23.40;75.60;;;;;;2302522;55;21129;-74
2021/07/09 08:58:28;;;;;;;3.67;2.03;;;23.40;75.70;;;;;;2261637;56;20917;-73
2021/07/09 09:00:54;;;;;;;4.22;2.35;;;23.50;75.70;;;;;;2473740;55;20941;-73
2021/07/09 09:03:24;;;;;;;4.57;2.08;;;23.60;75.60;;;;;;2263359;55;21016;-74
2021/07/09 09:05:50;;;;;;;3.83;2.42;;;23.70;75.20;;;;;;2371591;55;21720;-72
2021/07/09 09:08:21;;;;;;;3.42;2.30;;;23.70;74.20;;;;;;2259481;56;21897;-73
2021/07/09 09:10:55;;;;;;;4.87;2.42;;;23.80;74.30;;;;;;2282666;55;20932;-73
2021/07/09 09:13:26;;;;;;;4.20;2.40;;;23.90;74.50;;;;;;2260406;55;20944;-73
2021/07/09 09:16:04;;;;;;;4.70;2.40;;;24.00;74.90;;;;;;2260676;55;20985;-74
2021/07/09 09:18:56;;;;;;;3.78;2.17;;;24.10;74.10;;;;;;2242133;56;20921;-74
2021/07/09 09:21:23;;;;;;;4.65;2.22;;;24.20;72.90;;;;;;2260184;56;21006;-72
2021/07/09 09:23:54;;;;;;;4.43;2.50;;;24.30;74.50;;;;;;2260735;55;20965;-71
2021/07/09 09:26:46;;;;;;;3.20;2.00;;;24.30;72.20;;;;;;2241869;56;21845;-73
2021/07/09 09:29:31;;;;;;;;;;;24.30;71.60;;;;;;2266538;55;20996;-74
2021/07/09 09:32:00;;;;;;;5.75;1.80;;;24.40;71.60;;;;;;2264829;55;20061;-74
2021/07/09 09:34:44;;;;;;;4.47;1.67;;;24.40;72.90;;;;;;2261449;55;21187;-73
2021/07/09 09:37:12;;;;;;;4.35;2.40;;;24.30;71.20;;;;;;2440963;55;20984;-73
2021/07/09 09:39:42;;;;;;;3.12;1.83;;;24.30;71.90;;;;;;2258167;56;20957;-72
2021/07/09 09:42:19;;;;;;;2.87;1.70;;;24.20;71.70;;;;;;2261463;56;20936;-72
2021/07/09 09:45:00;;;;;;;4.10;1.95;;;24.20;71.40;;;;;;2261630;56;20969;-75
2021/07/09 09:47:34;;;;;;;5.07;1.90;;;24.10;71.90;;;;;;2261725;55;21000;-72
2021/07/09 09:50:02;;;;;;;3.78;2.10;;;24.10;71.30;;;;;;2488426;55;20972;-71
2021/07/09 09:52:41;;;;;;;3.10;1.90;;;24.10;72.30;;;;;;2260091;56;20959;-74
2021/07/09 09:55:15;;;;;;;4.10;2.05;;;24.10;71.70;;;;;;2389760;55;20917;-74
2021/07/09 09:57:43;;;;;;;4.20;2.08;;;24.10;72.30;;;;;;2261394;56;20961;-73
2021/07/09 10:00:31;;;;;;;3.33;2.00;;;24.10;72.30;;;;;;2261430;55;21083;-73
2021/07/09 10:03:07;;;;;;;4.05;1.80;;;24.10;73.00;;;;;;2348175;55;21494;-73
2021/07/09 10:05:42;;;;;;;4.18;2.30;;;24.20;73.50;;;;;;2344109;55;21516;-72
2021/07/09 10:08:15;;;;;;;4.07;2.20;;;24.30;72.70;;;;;;2444789;55;20999;-73
2021/07/09 10:10:44;;;;;;;3.85;2.12;;;24.40;72.10;;;;;;2258454;56;20973;-71
2021/07/09 10:13:21;;;;;;;4.32;2.20;;;24.50;72.40;;;;;;2261420;55;20989;-72
2021/07/09 10:15:48;;;;;;;3.42;1.90;;;24.60;71.20;;;;;;2472996;55;20988;-74
2021/07/09 10:18:15;;;;;;;5.53;2.10;;;24.70;72.40;;;;;;2296173;55;21433;-73
2021/07/09 10:20:44;;;;;;;3.28;1.77;;;24.70;71.40;;;;;;2385978;55;21028;-74
2021/07/09 10:23:13;;;;;;;3.40;1.95;;;24.80;71.40;;;;;;2261703;56;21041;-73
2021/07/09 10:25:39;;;;;;;3.22;1.95;;;24.80;71.60;;;;;;2261858;56;20948;-73
2021/07/09 10:28:08;;;;;;;4.10;1.62;;;24.90;71.70;;;;;;2261368;55;20980;-74
2021/07/09 10:30:35;;;;;;;3.47;1.87;;;24.90;71.60;;;;;;2261502;55;20984;-74
2021/07/09 10:33:11;;;;;;;2.97;1.80;;;25.00;70.70;;;;;;2261892;55;21012;-73
2021/07/09 10:35:41;;;;;;;4.05;2.05;;;25.00;70.50;;;;;;2299065;55;21040;-75
2021/07/09 10:38:17;;;;;;;2.90;1.70;;;25.00;70.50;;;;;;2261364;56;20980;-75
2021/07/09 10:40:43;;;;;;;3.95;2.20;;;25.10;69.90;;;;;;2261206;56;20945;-73
2021/07/09 10:43:12;;;;;;;3.62;2.08;;;25.10;69.20;;;;;;2261598;55;20964;-72
2021/07/09 10:45:39;;;;;;;2.70;1.65;;;25.10;69.70;;;;;;2260661;56;20979;-73
2021/07/09 10:48:12;;;;;;;4.05;2.25;;;25.20;69.80;;;;;;2260797;55;20981;-73
2021/07/09 10:50:56;;;;;;;2.78;1.70;;;25.20;69.30;;;;;;2264406;55;20937;-72
2021/07/09 10:53:25;;;;;;;2.87;1.73;;;25.30;68.70;;;;;;2258607;56;20960;-73
2021/07/09 10:56:08;;;;;;;5.12;1.90;;;25.30;69.70;;;;;;2325176;55;21544;-73
2021/07/09 10:58:42;;;;;;;4.00;1.98;;;25.40;68.30;;;;;;2265122;56;20988;-72
2021/07/09 11:01:21;;;;;;;3.20;1.50;;;25.40;68.60;;;;;;2332399;55;20925;-74
2021/07/09 11:04:23;;;;;;;3.12;1.77;;;25.50;70.10;;;;;;2261160;55;20988;-73
2021/07/09 11:06:49;;;;;;;5.43;2.22;;;25.60;69.50;;;;;;2261761;56;21032;-73
2021/07/09 11:09:15;;;;;;;3.37;1.60;;;25.70;69.30;;;;;;2431357;55;20945;-72
2021/07/09 11:11:52;;;;;;;3.55;1.80;;;25.80;70.00;;;;;;2443988;55;20960;-73
2021/07/09 11:14:37;;;;;;;2.70;1.70;;;25.90;67.70;;;;;;2285182;55;20997;-73
2021/07/09 11:17:18;;;;;;;4.78;1.58;;;26.00;66.30;;;;;;2307303;55;21005;-73
2021/07/09 11:19:44;;;;;;;3.12;1.85;;;26.10;67.50;;;;;;2347556;55;21012;-74
2021/07/09 11:22:12;;;;;;;3.03;2.00;;;26.10;68.40;;;;;;2388986;55;21457;-75
2021/07/09 11:24:49;;;;;;;2.60;1.50;;;26.20;67.50;;;;;;2348171;55;20977;-75
2021/07/09 11:28:01;;;;;;;2.72;1.50;;;26.30;67.60;;;;;;2260441;56;20985;-75
2021/07/09 11:30:28;;;;;;;3.00;2.03;;;26.30;66.70;;;;;;2263315;56;20957;-75
2021/07/09 11:32:55;;;;;;;2.80;1.58;;;26.40;68.10;;;;;;2324191;55;21028;-75
2021/07/09 11:35:21;;;;;;;3.08;1.80;;;26.40;68.60;;;;;;2264446;55;20957;-73
2021/07/09 11:37:49;;;;;;;3.55;1.65;;;26.50;68.60;;;;;;2262307;55;20977;-74
2021/07/09 11:40:17;;;;;;;2.67;1.50;;;26.60;68.50;;;;;;2257666;56;21024;-74
2021/07/09 11:42:46;;;;;;;2.67;1.52;;;26.70;68.20;;;;;;2261383;55;20960;-72
2021/07/09 11:45:15;;;;;;;3.45;1.60;;;26.70;68.30;;;;;;2267510;55;20986;-73
2021/07/09 11:47:43;;;;;;;2.70;1.58;;;26.80;68.70;;;;;;2387086;55;21065;-74
2021/07/09 11:50:18;;;;;;;3.83;1.90;;;26.90;68.70;;;;;;2261485;56;21742;-74
2021/07/09 11:52:50;;;;;;;2.40;1.40;;;27.00;67.20;;;;;;2261537;56;21437;-72
2021/07/09 11:55:18;;;;;;;2.45;1.45;;;27.10;68.50;;;;;;2483490;55;21843;-72
2021/07/09 11:57:44;;;;;;;3.55;1.70;;;27.10;67.80;;;;;;2261358;56;21099;-72
2021/07/09 12:00:12;;;;;;;3.22;1.90;;;27.20;67.50;;;;;;2261579;56;20955;-72
2021/07/09 12:02:39;;;;;;;2.92;1.50;;;27.20;66.40;;;;;;2261215;56;20964;-73
2021/07/09 12:05:12;;;;;;;4.90;1.62;;;27.20;66.10;;;;;;2261653;56;21025;-73
2021/07/09 12:07:39;;;;;;;2.45;1.30;;;27.20;65.20;;;;;;2240239;56;20996;-71
2021/07/09 12:10:14;;;;;;;2.80;1.45;;;27.20;65.50;;;;;;2264269;55;20985;-73
2021/07/09 12:13:06;;;;;;;2.92;1.52;;;27.20;65.50;;;;;;2263619;55;21001;-73
2021/07/09 12:15:39;;;;;;;3.95;1.90;;;27.20;63.40;;;;;;2263542;56;21835;-70
2021/07/09 12:18:09;;;;;;;3.10;1.67;;;27.20;63.70;;;;;;2326111;55;20969;-73
2021/07/09 12:20:39;;;;;;;3.97;1.50;;;27.10;64.60;;;;;;2239553;56;20985;-71
2021/07/09 12:23:07;;;;;;;2.50;1.45;;;27.10;64.70;;;;;;2242462;56;22064;-69
2021/07/09 12:25:59;;;;;;;2.70;1.67;;;27.10;65.20;;;;;;2258754;56;20957;-69
2021/07/09 12:28:30;;;;;;;3.87;1.75;;;27.10;63.40;;;;;;2261172;55;20981;-68
2021/07/09 12:30:58;;;;;;;2.47;1.37;;;27.00;64.60;;;;;;2263448;56;21078;-71
2021/07/09 12:33:26;;;;;;;2.87;1.52;;;27.00;65.30;;;;;;2241414;56;20954;-70
2021/07/09 12:36:04;;;;;;;2.15;1.30;;;27.00;65.70;;;;;;2260054;56;21476;-69
2021/07/09 12:38:31;;;;;;;2.92;1.35;;;27.10;65.00;;;;;;2257059;55;20851;-70
2021/07/09 12:41:02;;;;;;;2.50;1.30;;;27.10;66.20;;;;;;2261074;56;20969;-73
2021/07/09 12:43:50;;;;;;;3.10;1.33;;;27.20;65.60;;;;;;2267298;55;21839;-71
2021/07/09 12:46:21;;;;;;;2.55;1.27;;;27.20;64.80;;;;;;2259192;56;20972;-66
2021/07/09 12:49:01;;;;;;;2.60;1.48;;;27.20;65.50;;;;;;2264357;55;21088;-69
2021/07/09 12:51:39;;;;;;;3.58;1.62;;;27.30;64.30;;;;;;2260818;56;21440;-70
2021/07/09 12:54:11;;;;;;;3.35;1.60;;;27.40;64.60;;;;;;2261697;56;21386;-71
2021/07/09 12:56:59;;;;;;;2.67;1.33;;;27.40;64.60;;;;;;2264664;56;20969;-71